createdAt,value
2023-12-20T00:00:20.024Z,7.70
2023-12-20T00:00:53.078Z,7.70
2023-12-20T00:01:25.406Z,7.70
2023-12-20T00:01:57.616Z,7.70
2023-12-20T00:02:29.859Z,7.70
2023-12-20T00:03:02.876Z,7.70
2023-12-20T00:03:41.996Z,7.70
2023-12-20T00:04:15.090Z,7.70
2023-12-20T00:04:47.288Z,7.70
2023-12-20T00:05:20.482Z,7.70
2023-12-20T00:05:52.537Z,7.70
2023-12-20T00:06:25.080Z,7.70
2023-12-20T00:06:57.141Z,7.70
2023-12-20T00:07:30.241Z,7.70
2023-12-20T00:08:02.493Z,7.70
2023-12-20T00:08:34.577Z,7.70
2023-12-20T00:09:06.579Z,7.70
2023-12-20T00:09:39.661Z,7.70
2023-12-20T00:10:45.910Z,7.80
2023-12-20T00:11:17.957Z,7.70
2023-12-20T00:11:50.976Z,7.70
2023-12-20T00:12:23.145Z,7.70
2023-12-20T00:12:55.168Z,7.70
2023-12-20T00:13:27.186Z,7.70
2023-12-20T00:14:00.224Z,7.70
2023-12-20T00:14:32.217Z,7.70
2023-12-20T00:15:04.639Z,7.70
2023-12-20T00:15:36.776Z,7.70
2023-12-20T00:16:09.847Z,7.70
2023-12-20T00:16:41.897Z,7.80
2023-12-20T00:17:13.913Z,7.80
2023-12-20T00:17:46.132Z,7.80
2023-12-20T00:18:19.918Z,7.80
2023-12-20T00:18:54.120Z,7.80
2023-12-20T00:19:26.225Z,7.80
2023-12-20T00:19:58.291Z,7.80
2023-12-20T00:20:31.533Z,7.80
2023-12-20T00:21:04.017Z,7.80
2023-12-20T00:21:36.073Z,7.80
2023-12-20T00:22:09.107Z,7.80
2023-12-20T00:22:41.236Z,7.80
2023-12-20T00:23:13.284Z,7.80
2023-12-20T00:23:45.348Z,7.80
2023-12-20T00:24:18.826Z,7.80
2023-12-20T00:24:50.946Z,7.80
2023-12-20T00:25:23.007Z,7.90
2023-12-20T00:25:55.160Z,7.90
2023-12-20T00:26:29.259Z,7.90
2023-12-20T00:27:01.263Z,7.80
2023-12-20T00:27:33.257Z,7.80
2023-12-20T00:28:05.506Z,7.80
2023-12-20T00:28:38.843Z,7.80
2023-12-20T00:29:10.861Z,7.80
2023-12-20T00:29:44.186Z,7.80
2023-12-20T00:30:16.257Z,7.80
2023-12-20T00:30:48.395Z,7.90
2023-12-20T00:31:21.531Z,7.80
2023-12-20T00:31:53.589Z,7.80
2023-12-20T00:32:25.631Z,7.80
2023-12-20T00:32:58.293Z,7.80
2023-12-20T00:33:31.447Z,7.80
2023-12-20T00:34:05.037Z,7.80
2023-12-20T00:34:37.263Z,7.80
2023-12-20T00:35:09.316Z,7.80
2023-12-20T00:35:42.421Z,7.80
2023-12-20T00:36:14.469Z,7.80
2023-12-20T00:36:46.525Z,7.80
2023-12-20T00:37:18.617Z,7.80
2023-12-20T00:37:51.672Z,7.80
2023-12-20T00:38:23.927Z,7.80
2023-12-20T00:38:55.936Z,7.80
2023-12-20T00:39:27.917Z,7.80
2023-12-20T00:40:00.956Z,7.80
2023-12-20T00:40:33.026Z,7.80
2023-12-20T00:41:05.108Z,7.80
2023-12-20T00:41:37.235Z,7.80
2023-12-20T00:42:10.237Z,7.80
2023-12-20T00:42:42.856Z,7.80
2023-12-20T00:43:15.006Z,7.80
2023-12-20T00:43:47.042Z,7.80
2023-12-20T00:44:20.035Z,7.80
2023-12-20T00:44:51.998Z,7.80
2023-12-20T00:45:24.005Z,7.80
2023-12-20T00:45:56.555Z,7.80
2023-12-20T00:46:29.622Z,7.80
2023-12-20T00:47:02.229Z,7.80
2023-12-20T00:47:34.285Z,7.80
2023-12-20T00:48:07.051Z,7.80
2023-12-20T00:48:40.146Z,7.80
2023-12-20T00:49:13.646Z,7.90
2023-12-20T00:49:45.707Z,7.80
2023-12-20T00:50:18.863Z,7.90
2023-12-20T00:50:51.026Z,7.80
2023-12-20T00:51:23.996Z,7.80
2023-12-20T00:51:56.026Z,7.80
2023-12-20T00:52:29.073Z,7.90
2023-12-20T00:53:01.070Z,7.90
2023-12-20T00:53:33.147Z,7.90
2023-12-20T00:54:05.231Z,7.90
2023-12-20T00:54:38.394Z,7.90
2023-12-20T00:55:10.555Z,7.90
2023-12-20T00:55:42.615Z,7.90
2023-12-20T00:56:14.717Z,7.90
2023-12-20T00:56:47.739Z,7.90
2023-12-20T00:57:19.725Z,7.90
2023-12-20T00:57:51.737Z,7.90
2023-12-20T00:58:23.865Z,7.90
2023-12-20T00:58:56.885Z,8.00
2023-12-20T00:59:28.893Z,8.00
2023-12-20T01:00:00.932Z,8.00
2023-12-20T01:00:32.935Z,8.00
2023-12-20T01:01:06.056Z,8.00
2023-12-20T01:01:38.416Z,8.00
2023-12-20T01:02:11.076Z,8.00
2023-12-20T01:02:43.079Z,8.00
2023-12-20T01:03:16.353Z,8.00
2023-12-20T01:03:52.308Z,8.00
2023-12-20T01:04:25.966Z,8.00
2023-12-20T01:04:58.045Z,8.00
2023-12-20T01:05:30.463Z,8.00
2023-12-20T01:06:03.628Z,8.00
2023-12-20T01:06:35.668Z,8.00
2023-12-20T01:07:07.733Z,8.00
2023-12-20T01:07:39.765Z,8.00
2023-12-20T01:08:13.737Z,8.00
2023-12-20T01:08:45.977Z,8.10
2023-12-20T01:09:18.022Z,8.10
2023-12-20T01:09:50.072Z,8.10
2023-12-20T01:10:23.115Z,8.10
2023-12-20T01:10:56.190Z,8.10
2023-12-20T01:11:28.220Z,8.10
2023-12-20T01:12:00.251Z,8.10
2023-12-20T01:12:32.229Z,8.10
2023-12-20T01:13:04.554Z,8.10
2023-12-20T01:13:36.677Z,8.10
2023-12-20T01:14:09.758Z,8.20
2023-12-20T01:14:41.733Z,8.10
2023-12-20T01:15:13.740Z,8.10
2023-12-20T01:15:45.883Z,8.10
2023-12-20T01:16:18.974Z,8.10
2023-12-20T01:16:51.153Z,8.20
2023-12-20T01:17:23.250Z,8.20
2023-12-20T01:17:55.514Z,8.10
2023-12-20T01:18:29.067Z,8.10
2023-12-20T01:19:01.238Z,8.10
2023-12-20T01:19:34.858Z,8.10
2023-12-20T01:20:09.131Z,8.10
2023-12-20T01:20:41.234Z,8.10
2023-12-20T01:21:14.543Z,8.10
2023-12-20T01:21:46.596Z,8.10
2023-12-20T01:22:18.716Z,8.10
2023-12-20T01:22:50.773Z,8.10
2023-12-20T01:23:23.894Z,8.10
2023-12-20T01:23:55.991Z,8.10
2023-12-20T01:24:28.066Z,8.10
2023-12-20T01:25:01.215Z,8.10
2023-12-20T01:25:33.362Z,8.10
2023-12-20T01:26:06.537Z,8.00
2023-12-20T01:26:39.582Z,8.00
2023-12-20T01:27:11.623Z,8.00
2023-12-20T01:27:44.147Z,8.00
2023-12-20T01:28:16.391Z,8.00
2023-12-20T01:28:49.426Z,8.00
2023-12-20T01:29:21.473Z,8.10
2023-12-20T01:29:53.449Z,8.00
2023-12-20T01:30:26.574Z,8.10
2023-12-20T01:30:58.891Z,8.00
2023-12-20T01:31:31.037Z,8.00
2023-12-20T01:32:03.263Z,8.00
2023-12-20T01:32:36.258Z,8.00
2023-12-20T01:33:08.363Z,8.00
2023-12-20T01:33:40.581Z,8.00
2023-12-20T01:34:12.797Z,8.10
2023-12-20T01:34:47.492Z,8.10
2023-12-20T01:35:19.839Z,8.10
2023-12-20T01:35:52.009Z,8.10
2023-12-20T01:36:24.016Z,8.10
2023-12-20T01:36:57.125Z,8.10
2023-12-20T01:37:30.369Z,8.10
2023-12-20T01:38:02.410Z,8.10
2023-12-20T01:38:34.441Z,8.10
2023-12-20T01:39:16.408Z,8.10
2023-12-20T01:39:57.017Z,8.10
2023-12-20T01:40:29.076Z,8.10
2023-12-20T01:41:01.164Z,8.10
2023-12-20T01:41:34.244Z,8.10
2023-12-20T01:42:06.907Z,8.10
2023-12-20T01:42:38.921Z,8.10
2023-12-20T01:43:12.691Z,8.10
2023-12-20T01:43:51.201Z,8.10
2023-12-20T01:44:24.041Z,8.10
2023-12-20T01:44:56.138Z,8.10
2023-12-20T01:45:28.221Z,8.10
2023-12-20T01:46:01.693Z,8.10
2023-12-20T01:46:34.024Z,8.10
2023-12-20T01:47:06.091Z,8.20
2023-12-20T01:47:38.302Z,8.10
2023-12-20T01:48:12.079Z,8.10
2023-12-20T01:48:44.420Z,8.10
2023-12-20T01:49:17.448Z,8.10
2023-12-20T01:49:51.646Z,8.10
2023-12-20T01:50:25.270Z,8.10
2023-12-20T01:50:57.412Z,8.10
2023-12-20T01:51:29.659Z,8.10
2023-12-20T01:52:01.753Z,8.10
2023-12-20T01:52:35.228Z,8.00
2023-12-20T01:53:10.005Z,8.00
2023-12-20T01:53:43.428Z,8.10
2023-12-20T01:54:16.698Z,8.10
2023-12-20T01:54:49.291Z,8.10
2023-12-20T01:55:21.699Z,8.10
2023-12-20T01:55:57.256Z,8.10
2023-12-20T01:56:31.009Z,8.10
2023-12-20T01:57:04.292Z,8.10
2023-12-20T01:57:36.324Z,8.10
2023-12-20T01:58:09.710Z,8.10
2023-12-20T01:58:46.873Z,8.20
2023-12-20T01:59:21.054Z,8.10
2023-12-20T01:59:53.074Z,8.10
2023-12-20T02:00:27.674Z,8.10
2023-12-20T02:01:00.821Z,8.10
2023-12-20T02:01:33.336Z,8.10
2023-12-20T02:02:05.538Z,8.10
2023-12-20T02:02:39.900Z,8.10
2023-12-20T02:03:13.543Z,8.10
2023-12-20T02:03:46.107Z,8.10
2023-12-20T02:04:18.668Z,8.10
2023-12-20T02:04:52.277Z,8.10
2023-12-20T02:05:26.737Z,8.10
2023-12-20T02:06:00.031Z,8.10
2023-12-20T02:06:32.308Z,8.10
2023-12-20T02:07:05.629Z,8.10
2023-12-20T02:07:37.941Z,8.10
2023-12-20T02:08:11.065Z,8.10
2023-12-20T02:08:43.222Z,8.10
2023-12-20T02:09:16.512Z,8.10
2023-12-20T02:09:48.577Z,8.10
2023-12-20T02:10:21.736Z,8.10
2023-12-20T02:10:53.835Z,8.10
2023-12-20T02:11:26.671Z,8.10
2023-12-20T02:11:58.686Z,8.10
2023-12-20T02:12:31.663Z,8.10
2023-12-20T02:13:04.070Z,8.10
2023-12-20T02:13:36.348Z,8.20
2023-12-20T02:14:08.341Z,8.20
2023-12-20T02:14:41.504Z,8.20
2023-12-20T02:15:13.848Z,8.20
2023-12-20T02:15:45.947Z,8.20
2023-12-20T02:16:18.443Z,8.20
2023-12-20T02:16:51.512Z,8.20
2023-12-20T02:17:24.363Z,8.20
2023-12-20T02:17:56.900Z,8.30
2023-12-20T02:18:29.313Z,8.20
2023-12-20T02:19:01.434Z,8.20
2023-12-20T02:19:34.649Z,8.20
2023-12-20T02:20:09.131Z,8.30
2023-12-20T02:20:41.202Z,8.30
2023-12-20T02:21:13.234Z,8.30
2023-12-20T02:21:46.674Z,8.30
2023-12-20T02:22:18.734Z,8.30
2023-12-20T02:22:51.744Z,8.30
2023-12-20T02:23:23.743Z,8.30
2023-12-20T02:23:55.752Z,8.30
2023-12-20T02:24:27.776Z,8.30
2023-12-20T02:25:00.817Z,8.30
2023-12-20T02:25:32.869Z,8.30
2023-12-20T02:26:07.431Z,8.30
2023-12-20T02:26:42.725Z,8.30
2023-12-20T02:27:18.961Z,8.30
2023-12-20T02:27:51.710Z,8.30
2023-12-20T02:28:25.117Z,8.40
2023-12-20T02:28:57.195Z,8.30
2023-12-20T02:29:29.307Z,8.30
2023-12-20T02:30:01.307Z,8.30
2023-12-20T02:30:34.448Z,8.40
2023-12-20T02:31:06.599Z,8.30
2023-12-20T02:31:38.921Z,8.40
2023-12-20T02:32:10.994Z,8.30
2023-12-20T02:32:44.100Z,8.30
2023-12-20T02:33:16.972Z,8.30
2023-12-20T02:33:49.134Z,8.40
2023-12-20T02:34:21.316Z,8.30
2023-12-20T02:34:53.604Z,8.30
2023-12-20T02:35:26.643Z,8.30
2023-12-20T02:35:58.647Z,8.40
2023-12-20T02:36:30.629Z,8.40
2023-12-20T02:37:04.382Z,8.40
2023-12-20T02:37:37.429Z,8.40
2023-12-20T02:38:09.494Z,8.40
2023-12-20T02:38:41.511Z,8.40
2023-12-20T02:39:14.257Z,8.40
2023-12-20T02:39:46.272Z,8.40
2023-12-20T02:40:19.430Z,8.40
2023-12-20T02:40:51.601Z,8.40
2023-12-20T02:41:23.854Z,8.40
2023-12-20T02:41:55.857Z,8.40
2023-12-20T02:42:28.861Z,8.40
2023-12-20T02:43:00.855Z,8.50
2023-12-20T02:43:32.916Z,8.40
2023-12-20T02:44:05.199Z,8.40
2023-12-20T02:44:38.506Z,8.40
2023-12-20T02:45:10.687Z,8.40
2023-12-20T02:45:42.785Z,8.50
2023-12-20T02:46:17.243Z,8.40
2023-12-20T02:46:50.433Z,8.40
2023-12-20T02:47:22.493Z,8.40
2023-12-20T02:47:54.931Z,8.40
2023-12-20T02:48:28.072Z,8.40
2023-12-20T02:49:00.384Z,8.40
2023-12-20T02:49:32.560Z,8.40
2023-12-20T02:50:06.054Z,8.40
2023-12-20T02:50:38.139Z,8.40
2023-12-20T02:51:10.156Z,8.40
2023-12-20T02:51:42.186Z,8.50
2023-12-20T02:52:16.817Z,8.50
2023-12-20T02:52:48.920Z,8.50
2023-12-20T02:53:21.113Z,8.40
2023-12-20T02:53:53.147Z,8.50
2023-12-20T02:54:25.140Z,8.50
2023-12-20T02:54:58.168Z,8.50
2023-12-20T02:55:30.329Z,8.50
2023-12-20T02:56:02.345Z,8.50
2023-12-20T02:56:34.589Z,8.50
2023-12-20T02:57:07.888Z,8.50
2023-12-20T02:57:42.859Z,8.50
2023-12-20T02:58:15.174Z,8.50
2023-12-20T02:58:47.199Z,8.50
2023-12-20T02:59:20.177Z,8.50
2023-12-20T02:59:52.179Z,8.50
2023-12-20T03:00:24.180Z,8.50
2023-12-20T03:00:57.230Z,8.50
2023-12-20T03:01:30.436Z,8.50
2023-12-20T03:02:02.837Z,8.50
2023-12-20T03:02:34.966Z,8.60
2023-12-20T03:03:07.952Z,8.50
2023-12-20T03:03:39.965Z,8.50
2023-12-20T03:04:12.380Z,8.50
2023-12-20T03:04:44.496Z,8.50
2023-12-20T03:05:17.696Z,8.50
2023-12-20T03:05:49.798Z,8.50
2023-12-20T03:06:21.938Z,8.50
2023-12-20T03:06:53.995Z,8.50
2023-12-20T03:07:28.457Z,8.50
2023-12-20T03:08:01.561Z,8.50
2023-12-20T03:08:33.564Z,8.50
2023-12-20T03:09:05.573Z,8.50
2023-12-20T03:09:53.208Z,8.50
2023-12-20T03:10:30.685Z,8.50
2023-12-20T03:11:02.885Z,8.40
2023-12-20T03:11:36.062Z,8.40
2023-12-20T03:12:08.260Z,8.40
2023-12-20T03:12:40.343Z,8.40
2023-12-20T03:13:12.388Z,8.50
2023-12-20T03:13:45.479Z,8.50
2023-12-20T03:14:17.463Z,8.50
2023-12-20T03:14:50.706Z,8.50
2023-12-20T03:15:22.688Z,8.50
2023-12-20T03:15:55.903Z,8.40
2023-12-20T03:16:27.903Z,8.40
2023-12-20T03:17:00.836Z,8.50
2023-12-20T03:17:33.037Z,8.50
2023-12-20T03:18:05.467Z,8.50
2023-12-20T03:18:38.779Z,8.50
2023-12-20T03:19:10.828Z,8.50
2023-12-20T03:19:42.882Z,8.50
2023-12-20T03:20:15.057Z,8.50
2023-12-20T03:20:49.332Z,8.50
2023-12-20T03:21:21.412Z,8.50
2023-12-20T03:21:54.691Z,8.50
2023-12-20T03:22:28.150Z,8.50
2023-12-20T03:23:01.138Z,8.50
2023-12-20T03:23:34.474Z,8.50
2023-12-20T03:24:06.761Z,8.50
2023-12-20T03:24:38.952Z,8.50
2023-12-20T03:25:11.071Z,8.50
2023-12-20T03:25:44.117Z,8.50
2023-12-20T03:26:16.158Z,8.50
2023-12-20T03:26:48.202Z,8.50
2023-12-20T03:27:20.193Z,8.50
2023-12-20T03:27:52.226Z,8.50
2023-12-20T03:28:25.320Z,8.50
2023-12-20T03:28:57.321Z,8.40
2023-12-20T03:29:29.295Z,8.40
2023-12-20T03:30:02.283Z,8.50
2023-12-20T03:30:34.377Z,8.40
2023-12-20T03:31:06.456Z,8.50
2023-12-20T03:31:38.633Z,8.50
2023-12-20T03:32:11.894Z,8.40
2023-12-20T03:32:43.955Z,8.50
2023-12-20T03:33:15.984Z,8.50
2023-12-20T03:33:48.164Z,8.40
2023-12-20T03:34:21.313Z,8.40
2023-12-20T03:34:53.519Z,8.50
2023-12-20T03:35:25.642Z,8.50
2023-12-20T03:35:58.671Z,8.50
2023-12-20T03:36:30.693Z,8.40
2023-12-20T03:37:02.787Z,8.40
2023-12-20T03:37:36.166Z,8.40
2023-12-20T03:38:09.290Z,8.40
2023-12-20T03:38:41.519Z,8.40
2023-12-20T03:39:13.581Z,8.40
2023-12-20T03:39:46.598Z,8.40
2023-12-20T03:40:18.682Z,8.40
2023-12-20T03:40:50.963Z,8.30
2023-12-20T03:41:22.967Z,8.40
2023-12-20T03:41:55.996Z,8.40
2023-12-20T03:42:28.024Z,8.50
2023-12-20T03:43:00.271Z,8.40
2023-12-20T03:43:32.284Z,8.40
2023-12-20T03:44:05.353Z,8.40
2023-12-20T03:44:40.226Z,8.40
2023-12-20T03:45:12.329Z,8.40
2023-12-20T03:45:44.824Z,8.40
2023-12-20T03:46:17.869Z,8.40
2023-12-20T03:46:50.491Z,8.40
2023-12-20T03:47:22.715Z,8.40
2023-12-20T03:47:57.125Z,8.40
2023-12-20T03:48:30.155Z,8.40
2023-12-20T03:49:04.750Z,8.40
2023-12-20T03:49:38.318Z,8.40
2023-12-20T03:50:11.654Z,8.30
2023-12-20T03:50:43.668Z,8.40
2023-12-20T03:51:15.700Z,8.40
2023-12-20T03:51:47.805Z,8.40
2023-12-20T03:52:20.859Z,8.40
2023-12-20T03:52:54.270Z,8.40
2023-12-20T03:53:26.280Z,8.40
2023-12-20T03:53:58.284Z,8.30
2023-12-20T03:54:31.275Z,8.30
2023-12-20T03:55:03.405Z,8.30
2023-12-20T03:55:35.450Z,8.30
2023-12-20T03:56:09.238Z,8.30
2023-12-20T03:56:41.292Z,8.30
2023-12-20T03:57:13.338Z,8.30
2023-12-20T03:57:45.520Z,8.30
2023-12-20T03:58:18.727Z,8.30
2023-12-20T03:58:50.714Z,8.30
2023-12-20T03:59:22.715Z,8.30
2023-12-20T03:59:54.868Z,8.20
2023-12-20T04:00:27.894Z,8.30
2023-12-20T04:01:00.025Z,8.30
2023-12-20T04:01:32.269Z,8.30
2023-12-20T04:02:04.576Z,8.30
2023-12-20T04:02:37.567Z,8.20
2023-12-20T04:03:09.625Z,8.20
2023-12-20T04:03:41.791Z,8.20
2023-12-20T04:04:14.992Z,8.20
2023-12-20T04:04:48.150Z,8.20
2023-12-20T04:05:20.995Z,8.20
2023-12-20T04:05:53.154Z,8.20
2023-12-20T04:06:26.413Z,8.20
2023-12-20T04:06:58.715Z,8.20
2023-12-20T04:07:30.980Z,8.20
2023-12-20T04:08:05.219Z,8.10
2023-12-20T04:08:38.246Z,8.10
2023-12-20T04:09:10.440Z,8.10
2023-12-20T04:09:42.698Z,8.10
2023-12-20T04:10:14.776Z,8.10
2023-12-20T04:10:47.975Z,8.10
2023-12-20T04:11:19.967Z,8.10
2023-12-20T04:11:52.124Z,8.10
2023-12-20T04:12:24.186Z,8.10
2023-12-20T04:12:57.205Z,8.10
2023-12-20T04:13:29.581Z,8.00
2023-12-20T04:14:01.806Z,8.00
2023-12-20T04:14:34.832Z,8.00
2023-12-20T04:15:10.587Z,8.00
2023-12-20T04:15:42.911Z,8.00
2023-12-20T04:16:14.972Z,8.00
2023-12-20T04:16:48.167Z,7.90
2023-12-20T04:17:23.753Z,7.90
2023-12-20T04:17:55.886Z,7.90
2023-12-20T04:18:29.279Z,7.90
2023-12-20T04:19:02.465Z,7.90
2023-12-20T04:19:34.609Z,7.90
2023-12-20T04:20:08.090Z,7.90
2023-12-20T04:20:41.262Z,7.90
2023-12-20T04:21:13.378Z,7.90
2023-12-20T04:21:45.542Z,7.90
2023-12-20T04:22:18.815Z,7.80
2023-12-20T04:22:51.842Z,7.80
2023-12-20T04:23:25.202Z,7.80
2023-12-20T04:23:57.268Z,7.80
2023-12-20T04:24:29.261Z,7.80
2023-12-20T04:25:02.927Z,7.80
2023-12-20T04:25:34.979Z,7.80
2023-12-20T04:26:06.977Z,7.80
2023-12-20T04:26:39.961Z,7.80
2023-12-20T04:27:12.067Z,7.80
2023-12-20T04:27:44.236Z,7.80
2023-12-20T04:28:17.457Z,7.70
2023-12-20T04:28:50.590Z,7.70
2023-12-20T04:29:23.403Z,7.70
2023-12-20T04:29:56.430Z,7.70
2023-12-20T04:30:28.483Z,7.70
2023-12-20T04:31:00.726Z,7.70
2023-12-20T04:31:32.892Z,7.70
2023-12-20T04:32:06.706Z,7.70
2023-12-20T04:32:38.712Z,7.60
2023-12-20T04:33:10.778Z,7.60
2023-12-20T04:33:42.821Z,7.60
2023-12-20T04:34:15.899Z,7.60
2023-12-20T04:34:48.076Z,7.60
2023-12-20T04:35:20.210Z,7.60
2023-12-20T04:35:52.520Z,7.70
2023-12-20T04:36:27.848Z,7.70
2023-12-20T04:36:59.949Z,7.60
2023-12-20T04:37:31.963Z,7.70
2023-12-20T04:38:04.323Z,7.70
2023-12-20T04:38:38.705Z,7.70
2023-12-20T04:39:10.803Z,7.70
2023-12-20T04:39:42.900Z,7.70
2023-12-20T04:40:14.937Z,7.70
2023-12-20T04:40:49.232Z,7.80
2023-12-20T04:41:21.239Z,7.70
2023-12-20T04:41:53.266Z,7.80
2023-12-20T04:42:25.316Z,7.80
2023-12-20T04:42:58.337Z,7.80
2023-12-20T04:43:30.868Z,7.80
2023-12-20T04:44:03.301Z,7.80
2023-12-20T04:44:35.336Z,7.80
2023-12-20T04:45:09.070Z,7.80
2023-12-20T04:45:41.189Z,7.80
2023-12-20T04:46:13.342Z,7.80
2023-12-20T04:46:45.501Z,7.80
2023-12-20T04:47:18.483Z,7.70
2023-12-20T04:47:50.553Z,7.70
2023-12-20T04:48:22.678Z,7.70
2023-12-20T04:48:54.831Z,7.70
2023-12-20T04:49:28.000Z,7.70
2023-12-20T04:50:00.277Z,7.70
2023-12-20T04:50:32.549Z,7.70
2023-12-20T04:51:05.860Z,7.70
2023-12-20T04:51:39.101Z,7.70
2023-12-20T04:52:11.230Z,7.70
2023-12-20T04:52:43.705Z,7.70
2023-12-20T04:53:16.728Z,7.70
2023-12-20T04:53:50.180Z,7.70
2023-12-20T04:54:22.163Z,7.70
2023-12-20T04:54:54.210Z,7.70
2023-12-20T04:55:27.307Z,7.70
2023-12-20T04:55:59.307Z,7.60
2023-12-20T04:56:31.314Z,7.60
2023-12-20T04:57:04.719Z,7.60
2023-12-20T04:57:37.025Z,7.60
2023-12-20T04:58:09.117Z,7.50
2023-12-20T04:58:41.155Z,7.50
2023-12-20T04:59:14.389Z,7.50
2023-12-20T04:59:46.770Z,7.50
2023-12-20T05:00:19.234Z,7.60
2023-12-20T05:00:51.288Z,7.60
2023-12-20T05:01:24.391Z,7.60
2023-12-20T05:01:56.616Z,7.60
2023-12-20T05:02:28.684Z,7.60
2023-12-20T05:03:01.664Z,7.60
2023-12-20T05:03:33.980Z,7.60
2023-12-20T05:04:06.206Z,7.60
2023-12-20T05:04:38.348Z,7.60
2023-12-20T05:05:11.505Z,7.60
2023-12-20T05:05:43.601Z,7.60
2023-12-20T05:06:15.927Z,7.50
2023-12-20T05:06:49.097Z,7.50
2023-12-20T05:07:21.745Z,7.50
2023-12-20T05:07:54.001Z,7.40
2023-12-20T05:08:27.156Z,7.40
2023-12-20T05:09:00.589Z,7.40
2023-12-20T05:09:32.580Z,7.40
2023-12-20T05:10:05.655Z,7.40
2023-12-20T05:10:38.731Z,7.40
2023-12-20T05:11:10.771Z,7.40
2023-12-20T05:11:42.857Z,7.40
2023-12-20T05:12:14.902Z,7.30
2023-12-20T05:12:48.014Z,7.30
2023-12-20T05:13:20.185Z,7.30
2023-12-20T05:13:52.427Z,7.30
2023-12-20T05:14:24.491Z,7.30
2023-12-20T05:14:57.505Z,7.30
2023-12-20T05:15:29.520Z,7.30
2023-12-20T05:16:01.620Z,7.30
2023-12-20T05:16:33.694Z,7.30
2023-12-20T05:17:06.664Z,7.30
2023-12-20T05:17:38.703Z,7.20
2023-12-20T05:18:10.982Z,7.20
2023-12-20T05:18:43.340Z,7.20
2023-12-20T05:19:16.362Z,7.20
2023-12-20T05:19:48.503Z,7.20
2023-12-20T05:20:20.629Z,7.20
2023-12-20T05:20:56.611Z,7.20
2023-12-20T05:21:31.834Z,7.20
2023-12-20T05:22:04.182Z,7.20
2023-12-20T05:22:36.216Z,7.20
2023-12-20T05:23:09.322Z,7.20
2023-12-20T05:23:41.359Z,7.20
2023-12-20T05:24:14.814Z,7.20
2023-12-20T05:24:47.865Z,7.20
2023-12-20T05:25:19.971Z,7.10
2023-12-20T05:25:52.013Z,7.10
2023-12-20T05:26:24.026Z,7.10
2023-12-20T05:26:57.085Z,7.00
2023-12-20T05:27:29.125Z,7.00
2023-12-20T05:28:01.188Z,7.00
2023-12-20T05:28:33.302Z,6.90
2023-12-20T05:29:06.282Z,7.00
2023-12-20T05:29:38.355Z,6.90
2023-12-20T05:30:11.425Z,6.90
2023-12-20T05:30:43.629Z,6.90
2023-12-20T05:31:16.780Z,6.90
2023-12-20T05:31:48.925Z,6.90
2023-12-20T05:32:20.967Z,6.90
2023-12-20T05:32:53.064Z,6.80
2023-12-20T05:33:26.233Z,6.90
2023-12-20T05:33:58.493Z,6.80
2023-12-20T05:34:30.736Z,6.80
2023-12-20T05:35:03.132Z,6.80
2023-12-20T05:35:36.362Z,6.80
2023-12-20T05:36:12.251Z,6.70
2023-12-20T05:36:44.349Z,6.70
2023-12-20T05:37:16.473Z,6.70
2023-12-20T05:37:49.533Z,6.70
2023-12-20T05:38:21.534Z,6.70
2023-12-20T05:38:54.227Z,6.60
2023-12-20T05:39:27.615Z,6.60
2023-12-20T05:40:00.858Z,6.60
2023-12-20T05:40:32.912Z,6.70
2023-12-20T05:41:04.997Z,6.60
2023-12-20T05:41:37.019Z,6.60
2023-12-20T05:42:10.134Z,6.60
2023-12-20T05:42:42.388Z,6.60
2023-12-20T05:43:14.449Z,6.60
2023-12-20T05:43:46.519Z,6.60
2023-12-20T05:44:20.099Z,6.60
2023-12-20T05:44:54.662Z,6.60
2023-12-20T05:45:27.714Z,6.60
2023-12-20T05:45:59.770Z,6.60
2023-12-20T05:46:32.786Z,6.60
2023-12-20T05:47:05.195Z,6.60
2023-12-20T05:47:37.263Z,6.60
2023-12-20T05:48:09.328Z,6.60
2023-12-20T05:48:42.407Z,6.60
2023-12-20T05:49:15.080Z,6.50
2023-12-20T05:49:47.194Z,6.50
2023-12-20T05:50:19.774Z,6.50
2023-12-20T05:50:52.731Z,6.50
2023-12-20T05:51:24.770Z,6.50
2023-12-20T05:51:56.860Z,6.50
2023-12-20T05:52:28.896Z,6.50
2023-12-20T05:53:01.874Z,6.50
2023-12-20T05:53:33.920Z,6.50
2023-12-20T05:54:06.030Z,6.50
2023-12-20T05:54:39.427Z,6.50
2023-12-20T05:55:12.925Z,6.50
2023-12-20T05:55:44.991Z,6.40
2023-12-20T05:56:16.989Z,6.40
2023-12-20T05:56:49.026Z,6.40
2023-12-20T05:57:22.012Z,6.40
2023-12-20T05:57:54.041Z,6.40
2023-12-20T05:58:26.153Z,6.40
2023-12-20T05:58:59.717Z,6.40
2023-12-20T05:59:32.734Z,6.40
2023-12-20T06:00:05.982Z,6.40
2023-12-20T06:00:38.135Z,6.40
2023-12-20T06:01:10.288Z,6.40
2023-12-20T06:01:43.472Z,6.40
2023-12-20T06:02:15.844Z,6.40
2023-12-20T06:02:47.829Z,6.40
2023-12-20T06:03:19.848Z,6.40
2023-12-20T06:03:52.914Z,6.40
2023-12-20T06:04:24.968Z,6.40
2023-12-20T06:04:57.173Z,6.40
2023-12-20T06:05:29.334Z,6.40
2023-12-20T06:06:13.862Z,6.40
2023-12-20T06:06:49.039Z,6.40
2023-12-20T06:07:21.832Z,6.40
2023-12-20T06:07:55.649Z,6.40
2023-12-20T06:08:27.658Z,6.30
2023-12-20T06:08:59.817Z,6.40
2023-12-20T06:09:32.423Z,6.40
2023-12-20T06:10:08.273Z,6.40
2023-12-20T06:10:41.233Z,6.40
2023-12-20T06:11:14.666Z,6.40
2023-12-20T06:11:47.771Z,6.40
2023-12-20T06:12:19.774Z,6.30
2023-12-20T06:12:52.321Z,6.30
2023-12-20T06:13:24.411Z,6.30
2023-12-20T06:13:57.414Z,6.30
2023-12-20T06:14:29.387Z,6.30
2023-12-20T06:15:01.386Z,6.30
2023-12-20T06:15:33.460Z,6.30
2023-12-20T06:16:07.395Z,6.20
2023-12-20T06:16:40.425Z,6.20
2023-12-20T06:17:12.421Z,6.20
2023-12-20T06:17:44.767Z,6.30
2023-12-20T06:18:18.013Z,6.30
2023-12-20T06:18:50.109Z,6.30
2023-12-20T06:19:22.268Z,6.30
2023-12-20T06:19:55.365Z,6.30
2023-12-20T06:20:27.894Z,6.30
2023-12-20T06:20:59.905Z,6.30
2023-12-20T06:21:31.958Z,6.30
2023-12-20T06:22:05.409Z,6.20
2023-12-20T06:22:37.759Z,6.20
2023-12-20T06:23:09.886Z,6.30
2023-12-20T06:23:41.977Z,6.20
2023-12-20T06:24:14.962Z,6.20
2023-12-20T06:24:47.053Z,6.20
2023-12-20T06:25:20.496Z,6.20
2023-12-20T06:25:52.533Z,6.20
2023-12-20T06:26:25.553Z,6.20
2023-12-20T06:26:57.574Z,6.20
2023-12-20T06:27:29.810Z,6.20
2023-12-20T06:28:01.839Z,6.20
2023-12-20T06:28:34.957Z,6.20
2023-12-20T06:29:07.135Z,6.10
2023-12-20T06:29:39.149Z,6.10
2023-12-20T06:30:11.740Z,6.10
2023-12-20T06:30:44.995Z,6.20
2023-12-20T06:31:17.132Z,6.10
2023-12-20T06:31:49.594Z,6.10
2023-12-20T06:32:21.617Z,6.10
2023-12-20T06:32:54.621Z,6.10
2023-12-20T06:33:26.635Z,6.10
2023-12-20T06:34:00.864Z,6.00
2023-12-20T06:34:33.079Z,6.00
2023-12-20T06:35:07.147Z,6.10
2023-12-20T06:35:39.227Z,6.10
2023-12-20T06:36:13.349Z,6.10
2023-12-20T06:36:45.380Z,6.00
2023-12-20T06:37:18.561Z,6.00
2023-12-20T06:37:50.661Z,6.00
2023-12-20T06:38:22.838Z,6.00
2023-12-20T06:38:54.876Z,6.00
2023-12-20T06:39:29.067Z,6.00
2023-12-20T06:40:01.703Z,5.90
2023-12-20T06:40:35.244Z,5.90
2023-12-20T06:41:07.458Z,5.90
2023-12-20T06:41:39.685Z,5.90
2023-12-20T06:42:12.667Z,5.90
2023-12-20T06:42:50.478Z,5.90
2023-12-20T06:43:43.059Z,5.90
2023-12-20T06:44:22.229Z,5.80
2023-12-20T06:44:54.333Z,5.80
2023-12-20T06:45:26.384Z,5.80
2023-12-20T06:45:58.445Z,5.90
2023-12-20T06:46:30.642Z,5.90
2023-12-20T06:47:03.931Z,5.90
2023-12-20T06:47:36.198Z,5.90
2023-12-20T06:48:08.590Z,5.90
2023-12-20T06:48:41.293Z,5.90
2023-12-20T06:49:14.470Z,5.90
2023-12-20T06:49:46.529Z,5.90
2023-12-20T06:50:18.595Z,5.90
2023-12-20T06:50:50.590Z,5.90
2023-12-20T06:51:26.479Z,5.90
2023-12-20T06:51:58.626Z,5.90
2023-12-20T06:52:30.647Z,5.90
2023-12-20T06:53:07.956Z,5.90
2023-12-20T06:53:40.964Z,5.90
2023-12-20T06:54:12.966Z,5.90
2023-12-20T06:54:45.202Z,5.90
2023-12-20T06:55:18.555Z,5.90
2023-12-20T06:55:53.025Z,5.90
2023-12-20T06:56:25.028Z,5.80
2023-12-20T06:56:57.032Z,5.90
2023-12-20T06:57:29.049Z,5.90
2023-12-20T06:58:02.948Z,5.90
2023-12-20T06:58:35.022Z,5.80
2023-12-20T06:59:07.528Z,5.90
2023-12-20T06:59:40.859Z,5.90
2023-12-20T07:00:14.839Z,5.80
2023-12-20T07:00:46.932Z,5.80
2023-12-20T07:01:19.326Z,5.80
2023-12-20T07:01:51.694Z,5.80
2023-12-20T07:02:24.812Z,5.80
2023-12-20T07:02:56.835Z,5.80
2023-12-20T07:03:28.854Z,5.80
2023-12-20T07:04:01.863Z,5.80
2023-12-20T07:04:33.956Z,5.80
2023-12-20T07:05:07.302Z,5.80
2023-12-20T07:05:39.937Z,5.80
2023-12-20T07:06:13.052Z,5.80
2023-12-20T07:06:45.170Z,5.80
2023-12-20T07:07:17.311Z,5.80
2023-12-20T07:07:50.038Z,5.80
2023-12-20T07:08:23.455Z,5.80
2023-12-20T07:08:55.432Z,5.80
2023-12-20T07:09:28.012Z,5.80
2023-12-20T07:10:01.198Z,5.70
2023-12-20T07:10:33.319Z,5.70
2023-12-20T07:11:06.683Z,5.70
2023-12-20T07:11:38.732Z,5.70
2023-12-20T07:12:11.860Z,5.70
2023-12-20T07:12:44.008Z,5.60
2023-12-20T07:13:16.155Z,5.60
2023-12-20T07:13:48.308Z,5.70
2023-12-20T07:14:21.304Z,5.70
2023-12-20T07:14:53.296Z,5.70
2023-12-20T07:15:25.777Z,5.70
2023-12-20T07:15:58.087Z,5.70
2023-12-20T07:16:31.112Z,5.70